Time;durP1;ratioP1;P1;durP2;ratioP2;P2;SDS_P1;SDS_P2;PMS_P1;PMS_P2;Temp;Humidity;BMP_temperature;BMP_pressure;BME280_temperature;BME280_humidity;BME280_pressure;Samples;Min_cycle;Max_cycle;Signal;HPM_P1;HPM_P2
2022/09/30 00:00:56;;;;;;;;;;;;;;;20.62;62.13;97579.34;2050830;28;19930;-49
2022/09/30 00:01:57;;;;;;;;;;;;;;;20.61;62.18;97575.81;2044804;28;19934;-52
2022/09/30 00:02:58;;;;;;;;;;;;;;;20.61;62.12;97577.69;2046824;28;19930;-50
2022/09/30 00:04:01;;;;;;;;;;;;;;;20.61;61.91;97581.19;2046190;28;20346;-51
2022/09/30 00:05:01;;;;;;;;;;;;;;;20.61;62.18;97572.31;2047070;28;19959;-52
2022/09/30 00:06:04;;;;;;;;;;;;;;;20.61;61.97;97578.50;2047260;28;20558;-50
2022/09/30 00:07:04;;;;;;;;;;;;;;;20.60;61.85;97576.88;2047119;28;20483;-50
2022/09/30 00:08:06;;;;;;;;;;;;;;;20.62;62.15;97577.47;2049396;28;20025;-53
2022/09/30 00:09:06;;;;;;;;;;;;;;;20.61;61.92;97581.19;2051231;28;20448;-52
2022/09/30 00:10:08;;;;;;;;;;;;;;;20.61;61.84;97588.47;2048851;28;19943;-53
2022/09/30 00:11:12;;;;;;;;;;;;;;;20.62;61.81;97590.13;2039164;28;20151;-50
2022/09/30 00:12:13;;;;;;;;;;;;;;;20.60;61.79;97587.66;2047050;28;20008;-50
2022/09/30 00:13:14;;;;;;;;;;;;;;;20.60;62.04;97593.03;2047300;28;19922;-50
2022/09/30 00:14:17;;;;;;;;;;;;;;;20.60;62.13;97582.28;2047075;28;19929;-49
2022/09/30 00:15:17;;;;;;;;;;;;;;;20.59;62.25;97591.41;2047865;28;20009;-52
2022/09/30 00:16:20;;;;;;;;;;;;;;;20.60;62.09;97593.03;2052463;28;19933;-50
2022/09/30 00:17:21;;;;;;;;;;;;;;;20.59;62.23;97594.13;2044348;28;19937;-49
2022/09/30 00:18:22;;;;;;;;;;;;;;;20.60;62.17;97595.75;2048525;28;21325;-49
2022/09/30 00:19:24;;;;;;;;;;;;;;;20.60;62.07;97601.13;2043981;28;19976;-50
2022/09/30 00:20:26;;;;;;;;;;;;;;;20.60;62.09;97598.44;2048492;28;20024;-54
2022/09/30 00:21:27;;;;;;;;;;;;;;;20.60;61.97;97598.44;2047961;28;19938;-54
2022/09/30 00:22:28;;;;;;;;;;;;;;;20.60;62.22;97603.81;2048489;28;19930;-52
2022/09/30 00:23:29;;;;;;;;;;;;;;;20.60;61.93;97603.81;2048684;28;19926;-51
2022/09/30 00:24:31;;;;;;;;;;;;;;;20.61;62.00;97596.56;2050534;28;19984;-56
2022/09/30 00:25:31;;;;;;;;;;;;;;;20.61;61.78;97599.25;2049588;28;19965;-51
2022/09/30 00:26:34;;;;;;;;;;;;;;;20.59;61.87;97598.66;2048805;28;19922;-53
2022/09/30 00:27:34;;;;;;;;;;;;;;;20.59;61.93;97598.66;2047281;28;21111;-57
2022/09/30 00:28:36;;;;;;;;;;;;;;;20.60;62.22;97601.13;2052566;28;19931;-54
2022/09/30 00:29:36;;;;;;;;;;;;;;;20.59;61.88;97599.50;2050525;28;19975;-57
2022/09/30 00:30:38;;;;;;;;;;;;;;;20.59;62.06;97598.66;2049735;28;20396;-55
2022/09/30 00:31:38;;;;;;;;;;;;;;;20.58;61.93;97597.84;2049549;28;19937;-57
2022/09/30 00:32:39;;;;;;;;;;;;;;;20.58;62.03;97602.44;2052198;28;19932;-55
2022/09/30 00:33:40;;;;;;;;;;;;;;;20.57;61.88;97596.22;2051718;28;19980;-56
2022/09/30 00:34:43;;;;;;;;;;;;;;;20.59;62.02;97598.66;2052199;28;19930;-53
2022/09/30 00:35:43;;;;;;;;;;;;;;;20.57;62.07;97601.63;2051159;28;20512;-53
2022/09/30 00:36:45;;;;;;;;;;;;;;;20.58;62.21;97597.03;2042437;28;19933;-53
2022/09/30 00:37:46;;;;;;;;;;;;;;;20.59;62.06;97604.88;2048399;28;19926;-51
2022/09/30 00:38:47;;;;;;;;;;;;;;;20.60;61.82;97592.22;2051278;28;19984;-53
2022/09/30 00:39:49;;;;;;;;;;;;;;;20.58;61.83;97597.84;2053923;28;19926;-54
2022/09/30 00:40:50;;;;;;;;;;;;;;;20.58;62.02;97592.47;2056118;28;20323;-51
2022/09/30 00:41:54;;;;;;;;;;;;;;;20.58;61.88;97592.47;2046424;28;19985;-53
2022/09/30 00:42:55;;;;;;;;;;;;;;;20.59;61.94;97598.66;2046352;28;19980;-54
2022/09/30 00:43:57;;;;;;;;;;;;;;;20.57;61.85;97595.41;2045934;28;19942;-53
2022/09/30 00:45:04;;;;;;;;;;;;;;;20.58;61.98;97597.84;2050506;28;19926;-56
2022/09/30 00:46:05;;;;;;;;;;;;;;;20.57;61.88;97596.22;2050714;28;19930;-51
2022/09/30 00:47:16;;;;;;;;;;;;;;;20.58;61.86;97587.06;2049735;28;19926;-52
2022/09/30 00:48:19;;;;;;;;;;;;;;;20.58;62.03;97588.94;2049530;28;20359;-51
2022/09/30 00:49:20;;;;;;;;;;;;;;;20.57;62.12;97596.22;2053205;28;19926;-56
2022/09/30 00:50:31;;;;;;;;;;;;;;;20.57;61.82;97604.31;2056336;28;20356;-50
2022/09/30 00:51:34;;;;;;;;;;;;;;;20.57;62.00;97604.31;2053689;28;19969;-51
2022/09/30 00:52:36;;;;;;;;;;;;;;;20.57;62.10;97604.31;2057983;28;19925;-55
2022/09/30 00:53:41;;;;;;;;;;;;;;;20.57;61.93;97607.00;2048208;28;19926;-55
2022/09/30 00:54:43;;;;;;;;;;;;;;;20.57;61.67;97607.00;2049352;28;19926;-52
2022/09/30 00:55:48;;;;;;;;;;;;;;;20.57;62.04;97607.00;2049472;28;19962;-53
2022/09/30 00:56:51;;;;;;;;;;;;;;;20.56;61.72;97605.38;2054606;28;20004;-51
2022/09/30 00:57:53;;;;;;;;;;;;;;;20.57;62.02;97611.56;2052977;28;19965;-50
2022/09/30 00:58:56;;;;;;;;;;;;;;;20.56;61.81;97610.75;2054381;28;19972;-51
2022/09/30 00:59:57;;;;;;;;;;;;;;;20.56;61.79;97615.31;2052915;28;20342;-50
2022/09/30 01:01:00;;;;;;;;;;;;;;;20.56;61.81;97615.31;2050893;28;19922;-51
2022/09/30 01:02:00;;;;;;;;;;;;;;;20.56;62.04;97616.16;2053676;28;19922;-52
2022/09/30 01:03:02;;;;;;;;;;;;;;;20.57;61.95;97617.78;2048985;28;19929;-52
2022/09/30 01:04:06;;;;;;;;;;;;;;;20.55;62.06;97614.50;2049917;28;20686;-51
2022/09/30 01:05:10;;;;;;;;;;;;;;;20.57;62.04;97625.84;2053960;28;19991;-49
2022/09/30 01:06:13;;;;;;;;;;;;;;;20.55;61.71;97622.56;2050296;28;19964;-57
2022/09/30 01:07:14;;;;;;;;;;;;;;;20.56;61.93;97618.84;2055499;28;19922;-57
2022/09/30 01:08:17;;;;;;;;;;;;;;;20.56;62.04;97626.94;2047577;28;19940;-51
2022/09/30 01:09:18;;;;;;;;;;;;;;;20.56;61.78;97623.41;2051803;28;19933;-54
2022/09/30 01:10:19;;;;;;;;;;;;;;;20.56;61.93;97632.31;2053247;28;19932;-50
2022/09/30 01:11:20;;;;;;;;;;;;;;;20.57;61.78;97628.56;2050194;28;22529;-52
2022/09/30 01:12:23;;;;;;;;;;;;;;;20.56;61.72;97626.09;2051056;28;19999;-51
2022/09/30 01:13:26;;;;;;;;;;;;;;;20.56;61.91;97629.63;2050822;28;20562;-51
2022/09/30 01:14:28;;;;;;;;;;;;;;;20.57;62.02;97633.94;2051708;28;19950;-54
2022/09/30 01:15:34;;;;;;;;;;;;;;;20.56;62.02;97634.16;2053424;28;19972;-52
2022/09/30 01:16:43;;;;;;;;;;;;;;;20.56;61.93;97637.69;2051283;28;19965;-52
2022/09/30 01:17:50;;;;;;;;;;;;;;;20.56;61.68;97635.00;2043106;28;19948;-54
2022/09/30 01:18:59;;;;;;;;;;;;;;;20.55;61.78;97630.66;2051477;28;19926;-49
2022/09/30 01:20:21;;;;;;;;;;;;;;;20.55;61.86;97630.66;2055628;28;20961;-48
2022/09/30 01:21:39;;;;;;;;;;;;;;;20.54;61.90;97629.03;2050166;28;20005;-47
2022/09/30 01:22:42;;;;;;;;;;;;;;;20.55;61.80;97625.28;2055355;28;19922;-48
2022/09/30 01:23:56;;;;;;;;;;;;;;;20.55;61.82;97627.97;2054255;28;19929;-50
2022/09/30 01:25:22;;;;;;;;;;;;;;;20.54;61.65;97629.03;2053342;28;19929;-49
2022/09/30 01:26:43;;;;;;;;;;;;;;;20.56;61.99;97636.88;2055727;28;20296;-49
2022/09/30 01:28:01;;;;;;;;;;;;;;;20.54;61.97;97634.41;2054386;28;19959;-48
2022/09/30 01:29:11;;;;;;;;;;;;;;;20.54;61.87;97631.72;2058091;28;20016;-50
2022/09/30 01:30:18;;;;;;;;;;;;;;;20.53;61.91;97630.91;2056487;28;19926;-50
2022/09/30 01:31:28;;;;;;;;;;;;;;;20.53;61.96;97632.78;2055778;28;19935;-48
2022/09/30 01:32:38;;;;;;;;;;;;;;;20.53;61.95;97622.00;2059082;28;20028;-50
2022/09/30 01:33:44;;;;;;;;;;;;;;;20.55;61.99;97637.94;2055588;28;19975;-50
2022/09/30 01:34:52;;;;;;;;;;;;;;;20.53;61.65;97632.78;2058300;28;19925;-49
2022/09/30 01:35:57;;;;;;;;;;;;;;;20.54;62.02;97639.81;2056692;28;19925;-49
2022/09/30 01:37:04;;;;;;;;;;;;;;;20.53;61.78;97635.47;2054090;28;19952;-49
2022/09/30 01:38:11;;;;;;;;;;;;;;;20.53;61.96;97641.69;2057039;28;19933;-49
2022/09/30 01:39:21;;;;;;;;;;;;;;;20.52;61.67;97644.59;2056122;28;19934;-49
2022/09/30 01:40:24;;;;;;;;;;;;;;;20.53;61.71;97643.53;2054632;28;19930;-47
2022/09/30 01:41:28;;;;;;;;;;;;;;;20.53;61.57;97636.31;2056109;28;20006;-48
2022/09/30 01:42:34;;;;;;;;;;;;;;;20.53;61.66;97638.16;2052315;28;19926;-50
2022/09/30 01:43:41;;;;;;;;;;;;;;;20.54;61.60;97634.41;2058342;28;20270;-49
2022/09/30 01:44:48;;;;;;;;;;;;;;;20.54;61.58;97631.72;2058097;28;20002;-49
2022/09/30 01:45:55;;;;;;;;;;;;;;;20.53;61.67;97636.31;2054202;28;20268;-48
2022/09/30 01:47:00;;;;;;;;;;;;;;;20.52;61.98;97633.81;2054256;28;20898;-51
2022/09/30 01:48:03;;;;;;;;;;;;;;;20.52;61.49;97631.13;2051822;28;20584;-48
2022/09/30 01:49:09;;;;;;;;;;;;;;;20.53;61.79;97632.78;2055259;28;19930;-49
2022/09/30 01:50:15;;;;;;;;;;;;;;;20.52;61.87;97631.94;2053192;28;19983;-50
2022/09/30 01:51:20;;;;;;;;;;;;;;;20.51;61.73;97641.06;2051540;28;19937;-50
2022/09/30 01:52:24;;;;;;;;;;;;;;;20.52;61.81;97641.88;2055100;28;19961;-51
2022/09/30 01:53:29;;;;;;;;;;;;;;;20.51;61.81;97643.78;2050081;28;20365;-47
2022/09/30 01:54:34;;;;;;;;;;;;;;;20.51;61.72;97646.47;2057567;28;19926;-50
2022/09/30 01:55:36;;;;;;;;;;;;;;;20.51;61.73;97646.47;2053358;28;20529;-50
2022/09/30 01:56:42;;;;;;;;;;;;;;;20.52;61.84;97652.66;2054950;28;19961;-51
2022/09/30 01:57:48;;;;;;;;;;;;;;;20.51;61.85;97640.25;2055177;28;19925;-50
2022/09/30 01:58:52;;;;;;;;;;;;;;;20.51;61.56;97640.25;2053689;28;19926;-50
2022/09/30 01:59:56;;;;;;;;;;;;;;;20.50;61.64;97636.75;2053348;28;20004;-48
2022/09/30 02:01:00;;;;;;;;;;;;;;;20.51;61.70;97642.97;2051172;28;19929;-49
2022/09/30 02:02:05;;;;;;;;;;;;;;;20.50;61.77;97644.84;2052350;28;19926;-53
2022/09/30 02:03:09;;;;;;;;;;;;;;;20.50;61.69;97650.22;2053247;28;19957;-50
2022/09/30 02:04:13;;;;;;;;;;;;;;;20.49;61.86;97645.88;2053883;28;21363;-49
2022/09/30 02:05:18;;;;;;;;;;;;;;;20.50;61.88;97644.84;2055472;28;19929;-50
2022/09/30 02:06:21;;;;;;;;;;;;;;;20.50;61.72;97639.44;2052080;28;19926;-50
2022/09/30 02:07:25;;;;;;;;;;;;;;;20.51;61.93;97634.88;2054806;28;20619;-48
2022/09/30 02:08:27;;;;;;;;;;;;;;;20.52;61.79;97636.50;2053862;28;20060;-48
2022/09/30 02:09:32;;;;;;;;;;;;;;;20.50;61.43;97633.22;2052097;28;19988;-47
2022/09/30 02:10:36;;;;;;;;;;;;;;;20.49;61.71;97632.41;2051858;28;20030;-49
2022/09/30 02:11:38;;;;;;;;;;;;;;;20.49;61.79;97626.22;2051439;28;20057;-47
2022/09/30 02:12:45;;;;;;;;;;;;;;;20.50;61.72;97628.69;2052806;28;19925;-48
2022/09/30 02:13:49;;;;;;;;;;;;;;;20.48;61.63;97622.69;2051043;28;19930;-49
2022/09/30 02:14:54;;;;;;;;;;;;;;;20.49;61.52;97616.25;2050731;28;19922;-49
2022/09/30 02:15:58;;;;;;;;;;;;;;;20.49;61.76;97616.25;2053279;28;20040;-49
2022/09/30 02:17:01;;;;;;;;;;;;;;;20.49;61.71;97612.75;2053368;28;19960;-48
2022/09/30 02:18:07;;;;;;;;;;;;;;;20.49;61.88;97615.44;2054608;28;19925;-49
2022/09/30 02:19:13;;;;;;;;;;;;;;;20.50;61.79;97614.38;2052799;28;20012;-50
2022/09/30 02:20:17;;;;;;;;;;;;;;;20.49;61.78;97621.63;2055793;28;20271;-49
2022/09/30 02:21:20;;;;;;;;;;;;;;;20.49;61.93;97624.31;2052986;28;20384;-49
2022/09/30 02:22:24;;;;;;;;;;;;;;;20.48;61.85;97625.41;2050064;28;19934;-48
2022/09/30 02:23:26;;;;;;;;;;;;;;;20.49;61.65;97631.59;2053493;28;20017;-48
2022/09/30 02:24:33;;;;;;;;;;;;;;;20.48;61.50;97636.16;2053768;28;19922;-50
2022/09/30 02:25:35;;;;;;;;;;;;;;;20.48;61.96;97630.78;2053811;28;20404;-48
2022/09/30 02:26:38;;;;;;;;;;;;;;;20.48;61.47;97640.75;2053298;28;20643;-50
2022/09/30 02:27:41;;;;;;;;;;;;;;;20.48;61.59;97636.16;2054070;28;21668;-51
2022/09/30 02:28:45;;;;;;;;;;;;;;;20.48;61.75;97635.34;2052701;28;20245;-47
2022/09/30 02:29:48;;;;;;;;;;;;;;;20.49;61.70;97642.38;2053150;28;19993;-49
2022/09/30 02:30:51;;;;;;;;;;;;;;;20.46;62.02;97648.25;2051833;28;19961;-47
2022/09/30 02:31:55;;;;;;;;;;;;;;;20.46;61.61;97657.13;2053425;28;19937;-50
2022/09/30 02:32:59;;;;;;;;;;;;;;;20.47;61.81;97658.75;2050484;28;19929;-48
2022/09/30 02:34:04;;;;;;;;;;;;;;;20.47;61.44;97649.88;2053819;28;19975;-49
2022/09/30 02:35:08;;;;;;;;;;;;;;;20.48;61.50;97646.13;2052594;28;19926;-48
2022/09/30 02:36:15;;;;;;;;;;;;;;;20.47;61.62;97644.47;2054797;28;19922;-49
2022/09/30 02:37:19;;;;;;;;;;;;;;;20.46;61.54;97654.44;2051293;28;20012;-49
2022/09/30 02:38:22;;;;;;;;;;;;;;;20.47;61.54;97660.63;2053031;28;20076;-48
2022/09/30 02:39:29;;;;;;;;;;;;;;;20.46;61.60;97659.81;2053051;28;20025;-49
2022/09/30 02:40:34;;;;;;;;;;;;;;;20.46;61.52;97661.72;2051694;28;19936;-48
2022/09/30 02:41:38;;;;;;;;;;;;;;;20.47;61.44;97672.22;2052506;28;19933;-49
2022/09/30 02:42:40;;;;;;;;;;;;;;;20.46;61.66;97664.41;2053215;28;19934;-47
2022/09/30 02:43:42;;;;;;;;;;;;;;;20.46;61.52;97667.09;2052293;28;19921;-49
2022/09/30 02:44:42;;;;;;;;;;;;;;;20.46;61.88;97670.59;2055431;28;20453;-48
2022/09/30 02:45:49;;;;;;;;;;;;;;;20.45;61.50;97662.78;2051190;28;19922;-50
2022/09/30 02:46:54;;;;;;;;;;;;;;;20.45;61.89;97662.78;2051394;28;20372;-52
2022/09/30 02:48:09;;;;;;;;;;;;;;;20.45;61.42;97658.19;2054218;28;19953;-49
2022/09/30 02:49:17;;;;;;;;;;;;;;;20.45;61.61;97655.50;2052798;28;19925;-48
2022/09/30 02:50:20;;;;;;;;;;;;;;;20.46;61.69;97659.81;2051990;28;19929;-49
2022/09/30 02:51:25;;;;;;;;;;;;;;;20.46;61.44;97659.00;2050535;28;19972;-48
2022/09/30 02:52:32;;;;;;;;;;;;;;;20.45;61.64;97650.13;2053001;28;20014;-49
2022/09/30 02:53:35;;;;;;;;;;;;;;;20.45;61.48;97658.19;2051118;28;19930;-49
2022/09/30 02:54:43;;;;;;;;;;;;;;;20.46;61.61;97659.00;2058437;28;19922;-49
2022/09/30 02:55:51;;;;;;;;;;;;;;;20.44;61.66;97656.53;2057966;28;20525;-48
2022/09/30 02:56:55;;;;;;;;;;;;;;;20.43;61.73;97660.31;2053914;28;20524;-50
2022/09/30 02:57:59;;;;;;;;;;;;;;;20.45;61.83;97668.16;2053102;28;20713;-48
2022/09/30 02:59:00;;;;;;;;;;;;;;;20.45;61.61;97665.47;2053533;28;19922;-50
2022/09/30 03:00:01;;;;;;;;;;;;;;;20.44;61.73;97671.91;2041970;28;19987;-49
2022/09/30 03:01:03;;;;;;;;;;;;;;;20.45;61.52;97660.09;2051379;28;19985;-51
2022/09/30 03:02:03;;;;;;;;;;;;;;;20.45;61.83;97665.47;2051437;28;20042;-48
2022/09/30 03:03:08;;;;;;;;;;;;;;;20.46;61.75;97661.72;2054262;28;19926;-50
2022/09/30 03:04:12;;;;;;;;;;;;;;;20.44;61.57;97661.13;2053866;28;20029;-51
2022/09/30 03:05:16;;;;;;;;;;;;;;;20.43;61.84;97664.88;2054828;28;19953;-51
2022/09/30 03:06:18;;;;;;;;;;;;;;;20.44;61.66;97661.13;2049371;28;19987;-47
2022/09/30 03:07:18;;;;;;;;;;;;;;;20.44;61.54;97658.44;2052746;28;20025;-49
2022/09/30 03:08:20;;;;;;;;;;;;;;;20.45;61.87;97660.09;2052607;28;20515;-48
2022/09/30 03:09:23;;;;;;;;;;;;;;;20.44;61.52;97666.50;2053873;28;19967;-48
2022/09/30 03:10:24;;;;;;;;;;;;;;;20.44;61.47;97658.44;2053102;28;19976;-47
2022/09/30 03:11:27;;;;;;;;;;;;;;;20.44;61.55;97661.94;2052740;28;19988;-50
2022/09/30 03:12:34;;;;;;;;;;;;;;;20.44;61.82;97664.63;2051186;28;20013;-49
2022/09/30 03:13:50;;;;;;;;;;;;;;;20.43;61.76;97668.38;2053124;28;19925;-49
2022/09/30 03:15:06;;;;;;;;;;;;;;;20.41;61.87;97665.09;2052466;28;20141;-48
2022/09/30 03:16:13;;;;;;;;;;;;;;;20.44;61.72;97671.91;2045064;28;19922;-48
2022/09/30 03:17:29;;;;;;;;;;;;;;;20.44;61.64;97671.91;2052033;28;20303;-50
2022/09/30 03:18:40;;;;;;;;;;;;;;;20.42;61.86;97677.53;2052786;28;19930;-49
2022/09/30 03:19:50;;;;;;;;;;;;;;;20.40;61.72;97676.94;2051553;28;19925;-49
2022/09/30 03:21:00;;;;;;;;;;;;;;;20.43;61.57;97681.03;2056628;28;19925;-50
2022/09/30 03:22:09;;;;;;;;;;;;;;;20.43;61.80;97678.34;2058118;28;20513;-48
2022/09/30 03:23:18;;;;;;;;;;;;;;;20.42;61.89;97674.84;2049072;28;19972;-49
2022/09/30 03:24:30;;;;;;;;;;;;;;;20.43;61.81;97679.16;2053537;28;19957;-49
2022/09/30 03:25:37;;;;;;;;;;;;;;;20.43;61.50;97681.03;2050746;28;19929;-48
2022/09/30 03:26:46;;;;;;;;;;;;;;;20.43;61.74;97697.19;2050714;28;20988;-49
2022/09/30 03:27:51;;;;;;;;;;;;;;;20.43;61.69;97689.13;2054509;28;20276;-48
2022/09/30 03:29:01;;;;;;;;;;;;;;;20.41;61.75;97683.16;2051822;28;20000;-49
2022/09/30 03:30:04;;;;;;;;;;;;;;;20.42;61.68;97684.78;2053309;28;20017;-50
2022/09/30 03:31:08;;;;;;;;;;;;;;;20.43;61.88;97691.81;2047780;28;20887;-49
2022/09/30 03:32:15;;;;;;;;;;;;;;;20.41;61.74;97693.91;2052764;28;19926;-49
2022/09/30 03:33:22;;;;;;;;;;;;;;;20.40;61.63;97692.28;2052325;28;19948;-48
2022/09/30 03:34:27;;;;;;;;;;;;;;;20.40;61.40;97701.19;2055928;28;19991;-49
2022/09/30 03:35:32;;;;;;;;;;;;;;;20.39;61.84;97699.53;2055714;28;19964;-49
2022/09/30 03:36:39;;;;;;;;;;;;;;;20.40;61.54;97695.00;2056742;28;20390;-49
2022/09/30 03:37:44;;;;;;;;;;;;;;;20.40;61.59;97697.69;2052553;28;19926;-50
2022/09/30 03:38:49;;;;;;;;;;;;;;;20.39;61.77;97702.22;2054953;28;19985;-50
2022/09/30 03:39:54;;;;;;;;;;;;;;;20.39;61.53;97698.72;2052984;28;20596;-48
2022/09/30 03:40:59;;;;;;;;;;;;;;;20.41;61.65;97702.00;2052644;28;19925;-48
2022/09/30 03:42:04;;;;;;;;;;;;;;;20.38;61.92;97699.78;2053250;28;20559;-49
2022/09/30 03:43:09;;;;;;;;;;;;;;;20.39;61.72;97698.72;2053302;28;20000;-48
2022/09/30 03:44:13;;;;;;;;;;;;;;;20.38;61.83;97699.78;2052129;28;20266;-50
2022/09/30 03:45:19;;;;;;;;;;;;;;;20.39;61.71;97696.84;2053765;28;19928;-49
2022/09/30 03:46:23;;;;;;;;;;;;;;;20.37;61.70;97679.31;2052103;28;20510;-49
2022/09/30 03:47:26;;;;;;;;;;;;;;;20.38;61.83;97689.81;2052636;28;19934;-48
2022/09/30 03:48:28;;;;;;;;;;;;;;;20.39;61.74;97679.88;2053371;28;19933;-50
2022/09/30 03:49:32;;;;;;;;;;;;;;;20.40;61.81;97686.91;2051236;28;19921;-50
2022/09/30 03:50:35;;;;;;;;;;;;;;;20.38;61.96;97689.81;2051078;28;19956;-50
2022/09/30 03:51:38;;;;;;;;;;;;;;;20.40;61.80;97686.91;2057162;28;20608;-49
2022/09/30 03:52:39;;;;;;;;;;;;;;;20.38;61.44;97687.13;2056959;28;19929;-50
2022/09/30 03:53:40;;;;;;;;;;;;;;;20.38;61.88;97694.41;2057568;28;20016;-48
2022/09/30 03:54:46;;;;;;;;;;;;;;;20.40;61.73;97695.00;2057457;28;19980;-50
2022/09/30 03:55:49;;;;;;;;;;;;;;;20.39;61.40;97696.03;2058492;28;19929;-49
2022/09/30 03:56:49;;;;;;;;;;;;;;;20.38;61.53;97689.81;2055106;28;20496;-50
2022/09/30 03:57:53;;;;;;;;;;;;;;;20.37;61.61;97690.91;2058781;28;20078;-49
2022/09/30 03:58:53;;;;;;;;;;;;;;;20.39;61.85;97690.63;2058610;28;20013;-49
2022/09/30 03:59:55;;;;;;;;;;;;;;;20.39;61.55;97686.06;2057604;28;19940;-49
2022/09/30 04:00:56;;;;;;;;;;;;;;;20.38;61.44;97689.00;2055346;28;20000;-49
2022/09/30 04:01:58;;;;;;;;;;;;;;;20.39;61.80;97687.94;2056647;28;20960;-48
2022/09/30 04:02:58;;;;;;;;;;;;;;;20.38;61.53;97678.25;2055124;28;19976;-50
2022/09/30 04:04:00;;;;;;;;;;;;;;;20.39;61.63;97688.75;2056189;28;19968;-51
2022/09/30 04:05:00;;;;;;;;;;;;;;;20.38;61.47;97681.75;2055675;28;19976;-50
2022/09/30 04:06:02;;;;;;;;;;;;;;;20.37;61.60;97684.69;2053809;28;19930;-50
2022/09/30 04:07:04;;;;;;;;;;;;;;;20.37;61.45;97668.53;2051878;28;19925;-51
2022/09/30 04:08:05;;;;;;;;;;;;;;;20.37;61.50;97682.81;2053681;28;19936;-50
2022/09/30 04:09:07;;;;;;;;;;;;;;;20.36;61.96;97661.50;2052758;28;20559;-49
2022/09/30 04:10:08;;;;;;;;;;;;;;;20.36;61.60;97664.19;2055163;28;19925;-50
2022/09/30 04:11:09;;;;;;;;;;;;;;;20.35;61.68;97660.69;2054605;28;19969;-53
2022/09/30 04:12:10;;;;;;;;;;;;;;;20.36;61.54;97661.50;2056097;28;19929;-50
2022/09/30 04:13:12;;;;;;;;;;;;;;;20.36;61.72;97669.56;2055429;28;19925;-51
2022/09/30 04:14:12;;;;;;;;;;;;;;;20.35;61.53;97673.34;2053325;28;19922;-51
2022/09/30 04:15:14;;;;;;;;;;;;;;;20.35;61.47;97676.03;2055533;28;19925;-50
2022/09/30 04:16:15;;;;;;;;;;;;;;;20.35;61.64;97674.16;2055327;28;20596;-49
2022/09/30 04:17:15;;;;;;;;;;;;;;;20.35;61.58;97684.09;2055123;28;20375;-49
2022/09/30 04:18:17;;;;;;;;;;;;;;;20.36;61.47;97683.03;2056054;28;19934;-49
2022/09/30 04:19:17;;;;;;;;;;;;;;;20.35;61.59;97684.09;2054898;28;19952;-50
2022/09/30 04:20:19;;;;;;;;;;;;;;;20.35;61.94;97678.72;2054644;28;19949;-50
2022/09/30 04:21:19;;;;;;;;;;;;;;;20.35;61.47;97666.06;2053294;28;19985;-51
2022/09/30 04:22:22;;;;;;;;;;;;;;;20.35;61.56;97665.25;2052630;28;20364;-48
2022/09/30 04:23:23;;;;;;;;;;;;;;;20.36;61.66;97664.19;2050806;28;20837;-48
2022/09/30 04:24:24;;;;;;;;;;;;;;;20.36;61.57;97664.19;2046817;28;19976;-51
2022/09/30 04:25:25;;;;;;;;;;;;;;;20.35;62.00;97663.38;2045621;28;19980;-51
2022/09/30 04:26:27;;;;;;;;;;;;;;;20.35;61.60;97667.94;2046100;28;19930;-54
2022/09/30 04:27:29;;;;;;;;;;;;;;;20.33;61.80;97670.06;2046293;28;20336;-51
2022/09/30 04:28:30;;;;;;;;;;;;;;;20.34;61.67;97671.69;2047252;28;19932;-49
2022/09/30 04:29:31;;;;;;;;;;;;;;;20.33;61.47;97680.81;2046791;28;19926;-50
2022/09/30 04:30:32;;;;;;;;;;;;;;;20.33;61.81;97684.31;2047800;28;20013;-53
2022/09/30 04:31:32;;;;;;;;;;;;;;;20.33;61.58;97687.03;2047191;28;19972;-49
2022/09/30 04:32:35;;;;;;;;;;;;;;;20.33;61.58;97683.50;2046995;28;20004;-53
2022/09/30 04:33:35;;;;;;;;;;;;;;;20.35;61.43;97684.09;2047198;28;19926;-50
2022/09/30 04:34:37;;;;;;;;;;;;;;;20.34;61.60;97690.53;2048365;28;19933;-53
2022/09/30 04:35:38;;;;;;;;;;;;;;;20.35;61.47;97697.56;2045741;28;19929;-50
2022/09/30 04:36:39;;;;;;;;;;;;;;;20.33;61.77;97689.72;2043095;28;19933;-54
2022/09/30 04:37:42;;;;;;;;;;;;;;;20.33;61.45;97703.19;2047334;28;19929;-53
2022/09/30 04:38:44;;;;;;;;;;;;;;;20.32;61.86;97704.25;2049920;28;19926;-50
2022/09/30 04:39:44;;;;;;;;;;;;;;;20.31;61.56;97703.44;2037774;28;20470;-54
2022/09/30 04:40:48;;;;;;;;;;;;;;;20.34;61.73;97706.69;2040087;28;19933;-50
2022/09/30 04:41:49;;;;;;;;;;;;;;;20.34;61.43;97709.38;2043089;28;20388;-51
2022/09/30 04:42:52;;;;;;;;;;;;;;;20.34;61.62;97709.38;2029524;28;19937;-49
2022/09/30 04:43:54;;;;;;;;;;;;;;;20.33;61.59;97716.66;2043347;28;19925;-48
2022/09/30 04:44:56;;;;;;;;;;;;;;;20.33;61.84;97722.03;2042598;28;19926;-52
2022/09/30 04:45:57;;;;;;;;;;;;;;;20.32;61.76;97723.09;2045850;28;19938;-50
2022/09/30 04:46:59;;;;;;;;;;;;;;;20.33;61.67;97729.28;2043139;28;19926;-50
2022/09/30 04:48:00;;;;;;;;;;;;;;;20.34;61.73;97725.53;2045670;28;19979;-48
2022/09/30 04:49:01;;;;;;;;;;;;;;;20.33;61.69;97721.22;2045146;28;20016;-53
2022/09/30 04:50:02;;;;;;;;;;;;;;;20.32;61.64;97717.72;2044337;28;19922;-51
2022/09/30 04:51:04;;;;;;;;;;;;;;;20.33;61.66;97721.22;2046167;28;19984;-48
2022/09/30 04:52:04;;;;;;;;;;;;;;;20.31;61.62;97713.38;2046172;28;20569;-53
2022/09/30 04:53:07;;;;;;;;;;;;;;;20.31;61.86;97711.50;2051780;28;19929;-50
2022/09/30 04:54:08;;;;;;;;;;;;;;;20.32;61.72;97706.94;2047819;28;19926;-51
2022/09/30 04:55:10;;;;;;;;;;;;;;;20.33;61.62;97708.56;2046434;28;19922;-51
2022/09/30 04:56:11;;;;;;;;;;;;;;;20.31;61.98;97699.94;2045617;28;20418;-52
2022/09/30 04:57:12;;;;;;;;;;;;;;;20.31;61.64;97700.75;2045259;28;19984;-52
2022/09/30 04:58:14;;;;;;;;;;;;;;;20.33;61.83;97708.56;2044076;28;19930;-52
2022/09/30 04:59:15;;;;;;;;;;;;;;;20.32;61.69;97701.56;2045574;28;19929;-49
2022/09/30 05:00:16;;;;;;;;;;;;;;;20.30;61.61;97701.78;2038883;28;20036;-52
2022/09/30 05:01:18;;;;;;;;;;;;;;;20.29;61.63;97702.03;2034377;28;19933;-53
2022/09/30 05:02:18;;;;;;;;;;;;;;;20.29;61.96;97708.22;2042340;28;20421;-51
2022/09/30 05:03:20;;;;;;;;;;;;;;;20.29;61.90;97707.41;2042677;28;19934;-49
2022/09/30 05:04:20;;;;;;;;;;;;;;;20.29;61.63;97708.22;2044261;28;21803;-49
2022/09/30 05:05:22;;;;;;;;;;;;;;;20.30;61.60;97699.09;2041200;28;22854;-51
2022/09/30 05:06:22;;;;;;;;;;;;;;;20.30;61.55;97704.47;2045816;28;19929;-52
2022/09/30 05:07:24;;;;;;;;;;;;;;;20.29;61.59;97693.94;2049706;28;19926;-49
2022/09/30 05:08:26;;;;;;;;;;;;;;;20.29;61.53;97692.06;2042933;28;19933;-50
2022/09/30 05:09:27;;;;;;;;;;;;;;;20.30;61.81;97699.09;2046969;28;19930;-50
2022/09/30 05:10:28;;;;;;;;;;;;;;;20.29;61.73;97692.06;2042570;28;19946;-48
2022/09/30 05:11:30;;;;;;;;;;;;;;;20.30;61.63;97696.38;2042587;28;20279;-49
2022/09/30 05:12:30;;;;;;;;;;;;;;;20.30;61.51;97693.69;2041402;28;19945;-52
2022/09/30 05:13:33;;;;;;;;;;;;;;;20.32;61.53;97698.84;2040893;28;20273;-49
2022/09/30 05:14:35;;;;;;;;;;;;;;;20.30;61.43;97695.56;2044556;28;20052;-52
2022/09/30 05:15:36;;;;;;;;;;;;;;;20.30;61.70;97701.78;2045282;28;20012;-50
2022/09/30 05:16:37;;;;;;;;;;;;;;;20.30;61.68;97698.28;2044391;28;19957;-53
2022/09/30 05:17:38;;;;;;;;;;;;;;;20.30;61.55;97695.56;2045808;28;19925;-53
2022/09/30 05:18:41;;;;;;;;;;;;;;;20.29;61.76;97696.66;2048066;28;19929;-57
2022/09/30 05:19:41;;;;;;;;;;;;;;;20.29;61.50;97704.72;2041537;28;20318;-51
2022/09/30 05:20:43;;;;;;;;;;;;;;;20.30;61.53;97712.53;2042720;28;19937;-53
2022/09/30 05:21:44;;;;;;;;;;;;;;;20.30;61.80;97719.81;2044626;28;19929;-52
2022/09/30 05:22:46;;;;;;;;;;;;;;;20.29;61.95;97712.81;2046733;28;20376;-49
2022/09/30 05:23:49;;;;;;;;;;;;;;;20.29;62.03;97710.91;2042894;28;19929;-52
2022/09/30 05:24:49;;;;;;;;;;;;;;;20.28;61.97;97703.91;2051899;28;19929;-51
2022/09/30 05:25:51;;;;;;;;;;;;;;;20.29;61.82;97720.88;2043822;28;19926;-51
2022/09/30 05:26:53;;;;;;;;;;;;;;;20.29;61.53;97720.88;2040867;28;19926;-51
2022/09/30 05:27:53;;;;;;;;;;;;;;;20.29;61.61;97716.31;2044516;28;19930;-51
2022/09/30 05:28:55;;;;;;;;;;;;;;;20.28;61.91;97722.75;2042558;28;19929;-50
2022/09/30 05:29:55;;;;;;;;;;;;;;;20.29;61.58;97719.00;2046814;28;19926;-50
2022/09/30 05:30:58;;;;;;;;;;;;;;;20.28;61.82;97724.59;2044629;28;19922;-52
2022/09/30 05:31:58;;;;;;;;;;;;;;;20.28;61.53;97722.75;2043351;28;19933;-52